createdAt,value
2017-11-06T00:00:50.282Z,1006.3
2017-11-06T00:01:52.664Z,1006.3
2017-11-06T00:02:55.032Z,1006.3
2017-11-06T00:03:57.399Z,1006.4
2017-11-06T00:04:59.782Z,1006.4
2017-11-06T00:06:02.147Z,1006.3
2017-11-06T00:07:04.523Z,1006.3
2017-11-06T00:08:06.898Z,1006.3
2017-11-06T00:09:09.274Z,1006.4
2017-11-06T00:10:11.650Z,1006.4
2017-11-06T00:11:14.016Z,1006.4
2017-11-06T00:12:16.380Z,1006.5
2017-11-06T00:13:18.749Z,1006.5
2017-11-06T00:14:21.120Z,1006.5
2017-11-06T00:15:23.499Z,1006.5
2017-11-06T00:16:25.860Z,1006.5
2017-11-06T00:17:28.613Z,1006.5
2017-11-06T00:18:30.973Z,1006.5
2017-11-06T00:19:33.705Z,1006.5
2017-11-06T00:20:36.072Z,1006.5
2017-11-06T00:21:38.820Z,1006.6
2017-11-06T00:22:41.191Z,1006.6
2017-11-06T00:23:43.569Z,1006.5
2017-11-06T00:24:46.282Z,1006.5
2017-11-06T00:25:48.666Z,1006.5
2017-11-06T00:26:51.032Z,1006.5
2017-11-06T00:27:53.397Z,1006.6
2017-11-06T00:28:55.767Z,1006.6
2017-11-06T00:29:58.134Z,1006.7
2017-11-06T00:31:00.515Z,1006.7
2017-11-06T00:32:02.880Z,1006.7
2017-11-06T00:33:05.260Z,1006.7
2017-11-06T00:34:07.630Z,1006.6
2017-11-06T00:35:10.003Z,1006.6
2017-11-06T00:36:12.386Z,1006.6
2017-11-06T00:37:14.765Z,1006.6
2017-11-06T00:38:17.139Z,1006.6
2017-11-06T00:39:19.514Z,1006.6
2017-11-06T00:40:21.867Z,1006.7
2017-11-06T00:41:24.239Z,1006.7
2017-11-06T00:42:26.612Z,1006.7
2017-11-06T00:43:28.978Z,1006.8
2017-11-06T00:44:31.350Z,1006.8
2017-11-06T00:45:34.075Z,1006.8
2017-11-06T00:46:36.451Z,1006.8
2017-11-06T00:47:38.823Z,1006.8
2017-11-06T00:48:41.197Z,1006.8
2017-11-06T00:49:43.554Z,1006.8
2017-11-06T00:50:45.925Z,1006.8
2017-11-06T00:51:48.305Z,1006.8
2017-11-06T00:52:50.669Z,1006.9
2017-11-06T00:53:53.047Z,1006.9
2017-11-06T00:54:55.412Z,1006.9
2017-11-06T00:55:57.781Z,1006.9
2017-11-06T00:57:00.156Z,1007
2017-11-06T00:58:02.532Z,1007
2017-11-06T00:59:04.894Z,1007
2017-11-06T01:00:07.271Z,1007
2017-11-06T01:01:09.648Z,1007.1
2017-11-06T01:02:12.028Z,1007
2017-11-06T01:03:14.392Z,1007
2017-11-06T01:04:16.782Z,1007
2017-11-06T01:05:19.150Z,1007.1
2017-11-06T01:06:21.516Z,1007.1
2017-11-06T01:07:23.887Z,1007.1
2017-11-06T01:08:26.258Z,1007
2017-11-06T01:09:28.626Z,1007
2017-11-06T01:10:30.999Z,1007
2017-11-06T01:11:33.713Z,1007
2017-11-06T01:12:36.079Z,1007.1
2017-11-06T01:13:38.465Z,1007
2017-11-06T01:14:41.184Z,1007.1
2017-11-06T01:15:43.560Z,1007
2017-11-06T01:16:45.927Z,1007.1
2017-11-06T01:17:48.303Z,1007.1
2017-11-06T01:18:50.674Z,1007.1
2017-11-06T01:19:53.041Z,1007.1
2017-11-06T01:20:55.410Z,1007.1
2017-11-06T01:21:57.773Z,1007.2
2017-11-06T01:23:00.510Z,1007.2
2017-11-06T01:24:02.870Z,1007.2
2017-11-06T01:25:05.237Z,1007.2
2017-11-06T01:26:07.609Z,1007.2
2017-11-06T01:27:09.985Z,1007.2
2017-11-06T01:28:12.362Z,1007.3
2017-11-06T01:29:14.742Z,1007.3
2017-11-06T01:30:17.474Z,1007.3
2017-11-06T01:31:19.851Z,1007.2
2017-11-06T01:32:22.238Z,1007.3
2017-11-06T01:33:24.604Z,1007.3
2017-11-06T01:34:26.974Z,1007.2
2017-11-06T01:35:29.344Z,1007.3
2017-11-06T01:36:31.715Z,1007.3
2017-11-06T01:37:34.073Z,1007.3
2017-11-06T01:38:36.455Z,1007.3
2017-11-06T01:39:38.809Z,1007.3
2017-11-06T01:40:41.189Z,1007.3
2017-11-06T01:41:43.560Z,1007.3
2017-11-06T01:42:45.930Z,1007.3
2017-11-06T01:43:48.302Z,1007.3
2017-11-06T01:44:50.678Z,1007.3
2017-11-06T01:45:53.045Z,1007.3
2017-11-06T01:46:55.427Z,1007.3
2017-11-06T01:47:57.800Z,1007.3
2017-11-06T01:49:00.170Z,1007.3
2017-11-06T01:50:02.534Z,1007.3
2017-11-06T01:51:04.907Z,1007.3
2017-11-06T01:52:07.280Z,1007.3
2017-11-06T01:53:09.652Z,1007.3
2017-11-06T01:54:12.022Z,1007.3
2017-11-06T01:55:14.393Z,1007.4
2017-11-06T01:56:16.759Z,1007.3
2017-11-06T01:57:19.138Z,1007.4
2017-11-06T01:58:21.503Z,1007.4
2017-11-06T01:59:23.870Z,1007.5
2017-11-06T02:00:26.238Z,1007.5
2017-11-06T02:01:28.616Z,1007.4
2017-11-06T02:02:30.993Z,1007.5
2017-11-06T02:03:33.349Z,1007.5
2017-11-06T02:04:35.718Z,1007.5
2017-11-06T02:05:38.089Z,1007.5
2017-11-06T02:06:40.459Z,1007.5
2017-11-06T02:07:42.833Z,1007.5
2017-11-06T02:08:45.205Z,1007.5
2017-11-06T02:09:47.578Z,1007.6
2017-11-06T02:10:49.956Z,1007.6
2017-11-06T02:11:52.332Z,1007.6
2017-11-06T02:12:54.702Z,1007.6
2017-11-06T02:13:57.096Z,1007.6
2017-11-06T02:14:59.438Z,1007.7
2017-11-06T02:16:02.172Z,1007.7
2017-11-06T02:17:04.543Z,1007.7
2017-11-06T02:18:07.255Z,1007.7
2017-11-06T02:19:09.621Z,1007.8
2017-11-06T02:20:11.999Z,1007.7
2017-11-06T02:21:14.366Z,1007.8
2017-11-06T02:22:16.737Z,1007.7
2017-11-06T02:23:19.114Z,1007.8
2017-11-06T02:24:21.484Z,1007.8
2017-11-06T02:25:23.861Z,1007.8
2017-11-06T02:26:26.225Z,1007.8
2017-11-06T02:27:28.598Z,1007.8
2017-11-06T02:28:30.967Z,1007.8
2017-11-06T02:29:33.343Z,1007.9
2017-11-06T02:30:35.706Z,1007.9
2017-11-06T02:31:38.081Z,1008
2017-11-06T02:32:40.452Z,1007.9
2017-11-06T02:33:42.817Z,1008
2017-11-06T02:34:45.195Z,1008
2017-11-06T02:35:47.559Z,1008
2017-11-06T02:36:49.934Z,1008.1
2017-11-06T02:37:52.298Z,1008.1
2017-11-06T02:38:54.672Z,1008.1
2017-11-06T02:39:57.042Z,1008.2
2017-11-06T02:40:59.413Z,1008.2
2017-11-06T02:42:02.132Z,1008.2
2017-11-06T02:43:04.501Z,1008.2
2017-11-06T02:44:06.868Z,1008.2
2017-11-06T02:45:09.244Z,1008.2
2017-11-06T02:46:11.605Z,1008.2
2017-11-06T02:47:13.973Z,1008.2
2017-11-06T02:48:16.349Z,1008.1
2017-11-06T02:49:18.720Z,1008.2
2017-11-06T02:50:21.087Z,1008.2
2017-11-06T02:51:23.463Z,1008.2
2017-11-06T02:52:25.834Z,1008.1
2017-11-06T02:53:28.605Z,1008.1
2017-11-06T02:54:30.983Z,1008.1
2017-11-06T02:55:33.337Z,1008.1
2017-11-06T02:56:35.715Z,1008.2
2017-11-06T02:57:38.081Z,1008.2
2017-11-06T02:58:40.452Z,1008.1
2017-11-06T02:59:42.817Z,1008.2
2017-11-06T03:00:45.205Z,1008.2
2017-11-06T03:01:47.568Z,1008.2
2017-11-06T03:02:49.934Z,1008.2
2017-11-06T03:03:52.314Z,1008.2
2017-11-06T03:04:54.679Z,1008.1
2017-11-06T03:05:57.404Z,1008.2
2017-11-06T03:06:59.781Z,1008.2
2017-11-06T03:08:02.153Z,1008.2
2017-11-06T03:09:04.531Z,1008.3
2017-11-06T03:10:06.898Z,1008.3
2017-11-06T03:11:09.620Z,1008.3
2017-11-06T03:12:12.337Z,1008.3
2017-11-06T03:13:14.706Z,1008.3
2017-11-06T03:14:17.078Z,1008.3
2017-11-06T03:15:19.460Z,1008.3
2017-11-06T03:16:21.826Z,1008.4
2017-11-06T03:17:24.198Z,1008.5
2017-11-06T03:18:26.562Z,1008.5
2017-11-06T03:19:28.945Z,1008.5
2017-11-06T03:20:31.672Z,1008.5
2017-11-06T03:21:34.038Z,1008.5
2017-11-06T03:22:36.400Z,1008.4
2017-11-06T03:23:38.774Z,1008.5
2017-11-06T03:24:41.139Z,1008.4
2017-11-06T03:25:43.509Z,1008.5
2017-11-06T03:26:45.869Z,1008.5
2017-11-06T03:27:48.235Z,1008.5
2017-11-06T03:28:50.621Z,1008.5
2017-11-06T03:29:52.986Z,1008.5
2017-11-06T03:30:55.367Z,1008.5
2017-11-06T03:31:57.732Z,1008.5
2017-11-06T03:33:00.105Z,1008.6
2017-11-06T03:34:02.458Z,1008.6
2017-11-06T03:35:04.823Z,1008.6
2017-11-06T03:36:07.205Z,1008.6
2017-11-06T03:37:09.569Z,1008.6
2017-11-06T03:38:11.938Z,1008.6
2017-11-06T03:39:14.314Z,1008.6
2017-11-06T03:40:16.678Z,1008.6
2017-11-06T03:41:19.410Z,1008.6
2017-11-06T03:42:21.780Z,1008.6
2017-11-06T03:43:24.495Z,1008.5
2017-11-06T03:44:26.862Z,1008.6
2017-11-06T03:45:29.236Z,1008.6
2017-11-06T03:46:31.599Z,1008.6
2017-11-06T03:47:33.976Z,1008.6
2017-11-06T03:48:36.345Z,1008.6
2017-11-06T03:49:38.716Z,1008.6
2017-11-06T03:50:41.093Z,1008.6
2017-11-06T03:51:43.459Z,1008.6
2017-11-06T03:52:45.835Z,1008.7
2017-11-06T03:53:48.210Z,1008.6
2017-11-06T03:54:50.570Z,1008.6
2017-11-06T03:55:52.946Z,1008.7
2017-11-06T03:56:55.309Z,1008.8
2017-11-06T03:57:57.681Z,1008.8
2017-11-06T03:59:00.050Z,1008.8
2017-11-06T04:00:02.433Z,1008.8
2017-11-06T04:01:05.151Z,1008.8
2017-11-06T04:02:07.518Z,1008.8
2017-11-06T04:03:09.881Z,1008.9
2017-11-06T04:04:12.252Z,1009
2017-11-06T04:05:14.628Z,1009
2017-11-06T04:06:16.993Z,1009
2017-11-06T04:07:19.361Z,1009.1
2017-11-06T04:08:21.737Z,1009.1
2017-11-06T04:09:24.102Z,1009.1
2017-11-06T04:10:26.486Z,1009.1
2017-11-06T04:11:28.854Z,1009.1
2017-11-06T04:12:31.223Z,1009.1
2017-11-06T04:13:33.594Z,1009.2
2017-11-06T04:14:36.316Z,1009.2
2017-11-06T04:15:38.680Z,1009.2
2017-11-06T04:16:41.054Z,1009.2
2017-11-06T04:17:43.424Z,1009.2
2017-11-06T04:18:45.801Z,1009.2
2017-11-06T04:19:48.170Z,1009.2
2017-11-06T04:20:50.538Z,1009.2
2017-11-06T04:21:52.906Z,1009.2
2017-11-06T04:22:55.277Z,1009.3
2017-11-06T04:23:57.647Z,1009.3
2017-11-06T04:25:00.021Z,1009.3
2017-11-06T04:26:02.380Z,1009.3
2017-11-06T04:27:04.753Z,1009.3
2017-11-06T04:28:07.118Z,1009.3
2017-11-06T04:29:09.488Z,1009.3
2017-11-06T04:30:11.862Z,1009.3
2017-11-06T04:31:14.235Z,1009.3
2017-11-06T04:32:16.606Z,1009.4
2017-11-06T04:33:18.965Z,1009.4
2017-11-06T04:34:21.329Z,1009.4
2017-11-06T04:35:23.715Z,1009.4
2017-11-06T04:36:26.079Z,1009.4
2017-11-06T04:37:28.454Z,1009.5
2017-11-06T04:38:30.811Z,1009.5
2017-11-06T04:39:33.186Z,1009.5
2017-11-06T04:40:35.560Z,1009.6
2017-11-06T04:41:37.935Z,1009.6
2017-11-06T04:42:40.293Z,1009.6
2017-11-06T04:43:43.010Z,1009.6
2017-11-06T04:44:45.727Z,1009.7
2017-11-06T04:45:48.100Z,1009.7
2017-11-06T04:46:50.475Z,1009.7
2017-11-06T04:47:52.836Z,1009.7
2017-11-06T04:48:55.205Z,1009.7
2017-11-06T04:49:57.586Z,1009.7
2017-11-06T04:50:59.947Z,1009.7
2017-11-06T04:52:02.315Z,1009.7
2017-11-06T04:53:04.679Z,1009.7
2017-11-06T04:54:07.054Z,1009.8
2017-11-06T04:55:09.427Z,1009.8
2017-11-06T04:56:11.802Z,1009.8
2017-11-06T04:57:14.158Z,1009.8
2017-11-06T04:58:16.526Z,1009.8
2017-11-06T04:59:18.912Z,1009.8
2017-11-06T05:00:21.281Z,1009.8
2017-11-06T05:01:23.641Z,1009.8
2017-11-06T05:02:26.015Z,1009.8
2017-11-06T05:03:28.377Z,1009.8
2017-11-06T05:04:30.751Z,1009.8
2017-11-06T05:05:33.126Z,1009.8
2017-11-06T05:06:35.843Z,1009.9
2017-11-06T05:07:38.214Z,1009.9
2017-11-06T05:08:40.602Z,1009.9
2017-11-06T05:09:42.966Z,1009.9
2017-11-06T05:10:45.328Z,1010
2017-11-06T05:11:47.701Z,1009.9
2017-11-06T05:12:50.056Z,1010
2017-11-06T05:13:52.439Z,1010
2017-11-06T05:14:54.814Z,1010
2017-11-06T05:15:57.525Z,1010
2017-11-06T05:16:59.893Z,1010.1
2017-11-06T05:18:02.257Z,1010.1
2017-11-06T05:19:04.629Z,1010.1
2017-11-06T05:20:06.996Z,1010.1
2017-11-06T05:21:09.359Z,1010.1
2017-11-06T05:22:11.720Z,1010.2
2017-11-06T05:23:14.106Z,1010.2
2017-11-06T05:24:16.475Z,1010.2
2017-11-06T05:25:18.851Z,1010.2
2017-11-06T05:26:21.220Z,1010.2
2017-11-06T05:27:24.093Z,1010.2
2017-11-06T05:28:26.460Z,1010.2
2017-11-06T05:29:28.829Z,1010.3
2017-11-06T05:30:31.196Z,1010.4
2017-11-06T05:31:33.564Z,1010.4
2017-11-06T05:32:35.929Z,1010.4
2017-11-06T05:33:38.293Z,1010.4
2017-11-06T05:34:41.035Z,1010.4
2017-11-06T05:35:43.390Z,1010.5
2017-11-06T05:36:45.767Z,1010.5
2017-11-06T05:37:48.126Z,1010.5
2017-11-06T05:38:50.497Z,1010.5
2017-11-06T05:39:52.864Z,1010.6
2017-11-06T05:40:55.240Z,1010.6
2017-11-06T05:41:57.952Z,1010.6
2017-11-06T05:43:00.313Z,1010.6
2017-11-06T05:44:02.679Z,1010.7
2017-11-06T05:45:05.051Z,1010.7
2017-11-06T05:46:08.126Z,1010.7
2017-11-06T05:47:10.495Z,1010.7
2017-11-06T05:48:12.851Z,1010.7
2017-11-06T05:49:15.226Z,1010.7
2017-11-06T05:50:17.591Z,1010.8
2017-11-06T05:51:19.952Z,1010.8
2017-11-06T05:52:22.336Z,1010.7
2017-11-06T05:53:25.060Z,1010.8
2017-11-06T05:54:27.425Z,1010.8
2017-11-06T05:55:29.803Z,1010.8
2017-11-06T05:56:32.155Z,1010.8
2017-11-06T05:57:34.523Z,1010.8
2017-11-06T05:58:36.891Z,1010.8
2017-11-06T05:59:39.263Z,1010.8
2017-11-06T06:00:41.642Z,1010.8
2017-11-06T06:01:44.002Z,1010.8
2017-11-06T06:02:46.377Z,1010.9
2017-11-06T06:03:48.750Z,1010.8
2017-11-06T06:04:51.116Z,1010.8
2017-11-06T06:05:53.850Z,1010.9
2017-11-06T06:06:56.219Z,1010.8
2017-11-06T06:07:58.576Z,1010.8
2017-11-06T06:09:00.953Z,1010.8
2017-11-06T06:10:03.314Z,1010.8
2017-11-06T06:11:05.685Z,1010.8
2017-11-06T06:12:08.053Z,1010.9
2017-11-06T06:13:10.417Z,1010.9
2017-11-06T06:14:12.782Z,1010.9
2017-11-06T06:15:15.157Z,1011
2017-11-06T06:16:17.866Z,1010.9
2017-11-06T06:17:20.243Z,1010.9
2017-11-06T06:18:22.619Z,1011
2017-11-06T06:19:24.988Z,1010.9
2017-11-06T06:20:27.359Z,1011
2017-11-06T06:21:29.738Z,1011
2017-11-06T06:22:32.102Z,1011
2017-11-06T06:23:34.465Z,1011
2017-11-06T06:24:36.838Z,1011
2017-11-06T06:25:39.199Z,1011
2017-11-06T06:26:41.563Z,1011
2017-11-06T06:27:43.936Z,1011
2017-11-06T06:28:46.300Z,1011
2017-11-06T06:29:48.675Z,1011.1
2017-11-06T06:30:51.047Z,1011.1
2017-11-06T06:31:53.773Z,1011.1
2017-11-06T06:32:56.136Z,1011.2
2017-11-06T06:33:58.499Z,1011.2
2017-11-06T06:35:00.867Z,1011.2
2017-11-06T06:36:03.242Z,1011.2
2017-11-06T06:37:05.609Z,1011.2
2017-11-06T06:38:07.982Z,1011.3
2017-11-06T06:39:10.335Z,1011.3
2017-11-06T06:40:12.702Z,1011.2
2017-11-06T06:41:15.083Z,1011.3
2017-11-06T06:42:17.453Z,1011.3
2017-11-06T06:43:19.819Z,1011.3
2017-11-06T06:44:22.195Z,1011.3
2017-11-06T06:45:24.552Z,1011.4
2017-11-06T06:46:26.942Z,1011.4
2017-11-06T06:47:29.310Z,1011.4
2017-11-06T06:48:31.679Z,1011.4
2017-11-06T06:49:34.049Z,1011.5
2017-11-06T06:50:36.419Z,1011.5
2017-11-06T06:51:38.786Z,1011.5
2017-11-06T06:52:41.154Z,1011.4
2017-11-06T06:53:43.511Z,1011.5
2017-11-06T06:54:45.873Z,1011.5
2017-11-06T06:55:48.594Z,1011.4
2017-11-06T06:56:50.967Z,1011.5
2017-11-06T06:57:53.685Z,1011.5
2017-11-06T06:58:56.057Z,1011.5
2017-11-06T06:59:58.425Z,1011.5
2017-11-06T07:01:00.793Z,1011.5
2017-11-06T07:02:03.509Z,1011.5
2017-11-06T07:03:05.884Z,1011.5
2017-11-06T07:04:08.240Z,1011.5
2017-11-06T07:05:10.624Z,1011.5
2017-11-06T07:06:12.994Z,1011.5
2017-11-06T07:07:15.370Z,1011.6
2017-11-06T07:08:17.731Z,1011.6
2017-11-06T07:09:20.107Z,1011.6
2017-11-06T07:10:22.478Z,1011.7
2017-11-06T07:11:25.216Z,1011.6
2017-11-06T07:12:27.578Z,1011.7
2017-11-06T07:13:29.950Z,1011.7
2017-11-06T07:14:32.316Z,1011.8
2017-11-06T07:15:35.038Z,1011.8
2017-11-06T07:16:37.414Z,1011.8
2017-11-06T07:17:40.483Z,1011.8
2017-11-06T07:18:43.202Z,1011.8
2017-11-06T07:19:45.581Z,1011.8
2017-11-06T07:20:47.947Z,1011.8
2017-11-06T07:21:50.310Z,1011.9
2017-11-06T07:22:52.681Z,1011.9
2017-11-06T07:23:55.061Z,1011.9
2017-11-06T07:24:57.428Z,1012
2017-11-06T07:25:59.807Z,1012
2017-11-06T07:27:02.187Z,1012
2017-11-06T07:28:04.562Z,1012
2017-11-06T07:29:06.923Z,1012
2017-11-06T07:30:09.291Z,1012.1
2017-11-06T07:31:11.666Z,1012.2
2017-11-06T07:32:14.040Z,1012.1
2017-11-06T07:33:16.406Z,1012.2
2017-11-06T07:34:18.778Z,1012.2
2017-11-06T07:35:21.154Z,1012.2
2017-11-06T07:36:23.537Z,1012.2
2017-11-06T07:37:25.918Z,1012.3
2017-11-06T07:38:28.280Z,1012.3
2017-11-06T07:39:30.686Z,1012.3
2017-11-06T07:40:33.054Z,1012.3
2017-11-06T07:41:35.434Z,1012.3
2017-11-06T07:42:37.815Z,1012.3
2017-11-06T07:43:40.176Z,1012.4
2017-11-06T07:44:42.550Z,1012.3
2017-11-06T07:45:44.936Z,1012.3
2017-11-06T07:46:47.304Z,1012.3
2017-11-06T07:47:49.678Z,1012.4
2017-11-06T07:48:52.046Z,1012.3
2017-11-06T07:49:54.416Z,1012.4
2017-11-06T07:50:57.157Z,1012.4
2017-11-06T07:51:59.530Z,1012.4
2017-11-06T07:53:01.893Z,1012.5
2017-11-06T07:54:04.279Z,1012.4
2017-11-06T07:55:06.654Z,1012.4
2017-11-06T07:56:09.028Z,1012.4
2017-11-06T07:57:11.398Z,1012.5
2017-11-06T07:58:13.767Z,1012.5
2017-11-06T07:59:16.136Z,1012.5
2017-11-06T08:00:18.529Z,1012.5
2017-11-06T08:01:20.907Z,1012.5
2017-11-06T08:02:23.273Z,1012.5
2017-11-06T08:03:25.656Z,1012.5
2017-11-06T08:04:28.030Z,1012.6
2017-11-06T08:05:30.414Z,1012.5
2017-11-06T08:06:32.804Z,1012.5
2017-11-06T08:07:35.163Z,1012.5
2017-11-06T08:08:37.539Z,1012.5
2017-11-06T08:09:39.928Z,1012.5
2017-11-06T08:10:42.305Z,1012.6
2017-11-06T08:11:44.681Z,1012.6
2017-11-06T08:12:47.049Z,1012.6
2017-11-06T08:13:49.423Z,1012.6
2017-11-06T08:14:51.803Z,1012.7
2017-11-06T08:15:54.177Z,1012.7
2017-11-06T08:16:56.547Z,1012.7
2017-11-06T08:17:58.928Z,1012.7
2017-11-06T08:19:01.300Z,1012.7
2017-11-06T08:20:03.683Z,1012.7
2017-11-06T08:21:06.070Z,1012.7
2017-11-06T08:22:08.446Z,1012.7
2017-11-06T08:23:10.829Z,1012.8
2017-11-06T08:24:13.206Z,1012.8
2017-11-06T08:25:15.595Z,1012.7
2017-11-06T08:26:17.962Z,1012.8
2017-11-06T08:27:20.693Z,1012.8
2017-11-06T08:28:23.072Z,1012.7
2017-11-06T08:29:25.444Z,1012.8
2017-11-06T08:30:27.828Z,1012.8
2017-11-06T08:31:30.561Z,1012.8
2017-11-06T08:32:32.935Z,1012.8
2017-11-06T08:33:35.319Z,1012.8
2017-11-06T08:34:37.690Z,1012.8
2017-11-06T08:35:40.075Z,1012.8
2017-11-06T08:36:42.450Z,1012.8
2017-11-06T08:37:45.180Z,1012.9
2017-11-06T08:38:47.552Z,1012.9
2017-11-06T08:39:49.933Z,1012.9
2017-11-06T08:40:52.311Z,1012.9
2017-11-06T08:41:54.686Z,1012.9
2017-11-06T08:42:57.062Z,1012.9
2017-11-06T08:43:59.454Z,1012.9
2017-11-06T08:45:01.825Z,1013
2017-11-06T08:46:04.209Z,1013
2017-11-06T08:47:06.596Z,1013
2017-11-06T08:48:08.976Z,1013
2017-11-06T08:49:11.361Z,1013
2017-11-06T08:50:14.086Z,1013
2017-11-06T08:51:16.475Z,1013
2017-11-06T08:52:19.216Z,1013
2017-11-06T08:53:21.597Z,1013
2017-11-06T08:54:23.968Z,1013
2017-11-06T08:55:26.354Z,1013.1
2017-11-06T08:56:28.736Z,1013
2017-11-06T08:57:31.115Z,1013.1
2017-11-06T08:58:33.497Z,1013.1
2017-11-06T08:59:35.884Z,1013.1
2017-11-06T09:00:38.270Z,1013.1
2017-11-06T09:01:40.650Z,1013.1
2017-11-06T09:02:43.033Z,1013.1
2017-11-06T09:03:45.767Z,1013.1
2017-11-06T09:04:48.146Z,1013.2
2017-11-06T09:05:50.521Z,1013.1
2017-11-06T09:06:52.902Z,1013.1
2017-11-06T09:07:55.276Z,1013.2
2017-11-06T09:08:57.664Z,1013.2
2017-11-06T09:10:00.037Z,1013.2
2017-11-06T09:11:02.426Z,1013.2
2017-11-06T09:12:05.534Z,1013.2
2017-11-06T09:13:07.915Z,1013.2
2017-11-06T09:14:10.660Z,1013.2
2017-11-06T09:15:13.400Z,1013.2
2017-11-06T09:16:15.778Z,1013.2
2017-11-06T09:17:18.170Z,1013.2
2017-11-06T09:18:20.537Z,1013.3
2017-11-06T09:19:22.921Z,1013.2
2017-11-06T09:20:25.304Z,1013.2
2017-11-06T09:21:27.688Z,1013.2
2017-11-06T09:22:30.066Z,1013.2
2017-11-06T09:23:32.454Z,1013.3
2017-11-06T09:24:35.202Z,1013.3
2017-11-06T09:25:38.271Z,1013.3
2017-11-06T09:26:40.662Z,1013.3
2017-11-06T09:27:43.041Z,1013.3
2017-11-06T09:28:45.428Z,1013.3
2017-11-06T09:29:47.822Z,1013.3
2017-11-06T09:30:50.204Z,1013.3
2017-11-06T09:31:52.584Z,1013.3
2017-11-06T09:32:54.980Z,1013.4
2017-11-06T09:33:57.362Z,1013.4
2017-11-06T09:34:59.746Z,1013.4
2017-11-06T09:36:02.485Z,1013.5
2017-11-06T09:37:04.866Z,1013.4
2017-11-06T09:38:07.252Z,1013.5
2017-11-06T09:39:09.642Z,1013.5
2017-11-06T09:40:12.024Z,1013.5
2017-11-06T09:41:14.408Z,1013.5
2017-11-06T09:42:16.805Z,1013.5
2017-11-06T09:43:19.198Z,1013.5
2017-11-06T09:44:21.579Z,1013.6
2017-11-06T09:45:23.965Z,1013.6
2017-11-06T09:46:26.357Z,1013.6
2017-11-06T09:47:28.743Z,1013.6
2017-11-06T09:48:31.129Z,1013.6
2017-11-06T09:49:33.508Z,1013.7
2017-11-06T09:50:35.889Z,1013.6
2017-11-06T09:51:38.293Z,1013.6
2017-11-06T09:52:40.674Z,1013.6
2017-11-06T09:53:43.066Z,1013.6
2017-11-06T09:54:45.453Z,1013.6
2017-11-06T09:55:47.843Z,1013.6
2017-11-06T09:56:50.229Z,1013.6
2017-11-06T09:57:52.629Z,1013.6
2017-11-06T09:58:55.011Z,1013.7
2017-11-06T09:59:57.398Z,1013.6
2017-11-06T10:00:59.784Z,1013.7
2017-11-06T10:02:02.174Z,1013.7
2017-11-06T10:03:04.562Z,1013.7
2017-11-06T10:04:06.967Z,1013.7
2017-11-06T10:05:09.686Z,1013.7
2017-11-06T10:06:12.082Z,1013.7
2017-11-06T10:07:14.470Z,1013.7
2017-11-06T10:08:16.859Z,1013.8
2017-11-06T10:09:19.258Z,1013.8
2017-11-06T10:10:21.647Z,1013.8
2017-11-06T10:11:24.408Z,1013.7
2017-11-06T10:12:26.802Z,1013.8
2017-11-06T10:13:29.194Z,1013.8
2017-11-06T10:14:31.577Z,1013.8
2017-11-06T10:15:33.979Z,1013.8
2017-11-06T10:16:36.352Z,1013.8
2017-11-06T10:17:38.744Z,1013.8
2017-11-06T10:18:41.133Z,1013.8
2017-11-06T10:19:43.519Z,1013.9
2017-11-06T10:20:45.917Z,1013.9
2017-11-06T10:21:48.309Z,1013.9
2017-11-06T10:22:50.691Z,1013.9
2017-11-06T10:23:53.093Z,1013.9
2017-11-06T10:24:55.481Z,1013.9
2017-11-06T10:25:57.871Z,1013.8
2017-11-06T10:27:00.248Z,1013.9
2017-11-06T10:28:02.988Z,1013.9
2017-11-06T10:29:05.379Z,1013.9
2017-11-06T10:30:07.758Z,1013.9
2017-11-06T10:31:10.155Z,1013.8
2017-11-06T10:32:12.539Z,1013.9
2017-11-06T10:33:14.934Z,1013.9
2017-11-06T10:34:17.328Z,1013.9
2017-11-06T10:35:19.719Z,1013.9
2017-11-06T10:36:22.456Z,1013.9
2017-11-06T10:37:24.851Z,1013.9
2017-11-06T10:38:27.239Z,1014
2017-11-06T10:39:29.989Z,1014
2017-11-06T10:40:32.392Z,1013.9
2017-11-06T10:41:34.769Z,1014
2017-11-06T10:42:37.513Z,1014
2017-11-06T10:43:39.906Z,1014
2017-11-06T10:44:42.644Z,1014
2017-11-06T10:45:45.036Z,1014
2017-11-06T10:46:47.428Z,1014.1
2017-11-06T10:47:49.813Z,1014
2017-11-06T10:48:52.217Z,1014
2017-11-06T10:49:54.608Z,1014.1
2017-11-06T10:50:57.047Z,1014
2017-11-06T10:51:59.437Z,1014
2017-11-06T10:53:01.829Z,1014.1
2017-11-06T10:54:04.566Z,1014.1
2017-11-06T10:55:06.957Z,1014
2017-11-06T10:56:09.358Z,1014.1
2017-11-06T10:57:11.744Z,1014.1
2017-11-06T10:58:14.131Z,1014.1
2017-11-06T10:59:16.870Z,1014.1
2017-11-06T11:00:19.610Z,1014.1
2017-11-06T11:01:22.008Z,1014
2017-11-06T11:02:24.407Z,1014.1
2017-11-06T11:03:27.130Z,1014
2017-11-06T11:04:29.523Z,1014
2017-11-06T11:05:31.925Z,1014.1
2017-11-06T11:06:34.314Z,1014.1
2017-11-06T11:07:36.701Z,1014.1
2017-11-06T11:08:39.086Z,1014.1
2017-11-06T11:09:41.482Z,1014.1
2017-11-06T11:10:43.873Z,1014.1
2017-11-06T11:11:46.616Z,1014.2
2017-11-06T11:12:49.004Z,1014.2
2017-11-06T11:13:51.738Z,1014.2
2017-11-06T11:14:54.485Z,1014.2
2017-11-06T11:15:56.875Z,1014.2
2017-11-06T11:16:59.274Z,1014.2
2017-11-06T11:18:01.659Z,1014.2
2017-11-06T11:19:04.060Z,1014.2
2017-11-06T11:20:06.447Z,1014.2
2017-11-06T11:21:08.834Z,1014.2
2017-11-06T11:22:11.231Z,1014.2
2017-11-06T11:23:13.620Z,1014.2
2017-11-06T11:24:16.013Z,1014.2
2017-11-06T11:25:18.405Z,1014.3
2017-11-06T11:26:20.789Z,1014.3
2017-11-06T11:27:23.186Z,1014.3
2017-11-06T11:28:25.936Z,1014.2
2017-11-06T11:29:28.317Z,1014.3
2017-11-06T11:30:30.719Z,1014.3
2017-11-06T11:31:33.111Z,1014.3
2017-11-06T11:32:35.508Z,1014.3
2017-11-06T11:33:38.240Z,1014.3
2017-11-06T11:34:40.633Z,1014.3
2017-11-06T11:35:43.020Z,1014.3
2017-11-06T11:36:45.425Z,1014.4
2017-11-06T11:37:47.802Z,1014.4
2017-11-06T11:38:50.210Z,1014.4
2017-11-06T11:39:52.599Z,1014.4
2017-11-06T11:40:54.976Z,1014.5
2017-11-06T11:41:57.372Z,1014.5
2017-11-06T11:42:59.760Z,1014.5
2017-11-06T11:44:02.154Z,1014.5
2017-11-06T11:45:04.895Z,1014.5
2017-11-06T11:46:07.282Z,1014.5
2017-11-06T11:47:09.673Z,1014.5
2017-11-06T11:48:12.075Z,1014.5
2017-11-06T11:49:14.459Z,1014.5
2017-11-06T11:50:16.847Z,1014.5
2017-11-06T11:51:19.245Z,1014.5
2017-11-06T11:52:21.632Z,1014.5
2017-11-06T11:53:24.022Z,1014.5
2017-11-06T11:54:26.413Z,1014.5
2017-11-06T11:55:28.815Z,1014.6
2017-11-06T11:56:31.213Z,1014.6
2017-11-06T11:57:33.601Z,1014.5
2017-11-06T11:58:35.994Z,1014.5
2017-11-06T11:59:38.392Z,1014.5
2017-11-06T12:00:40.784Z,1014.5
2017-11-06T12:01:43.882Z,1014.5
2017-11-06T12:02:46.264Z,1014.6
2017-11-06T12:03:48.658Z,1014.6
2017-11-06T12:04:51.059Z,1014.6
2017-11-06T12:05:53.447Z,1014.6
2017-11-06T12:06:55.845Z,1014.6
2017-11-06T12:07:58.232Z,1014.6
2017-11-06T12:09:00.617Z,1014.6
2017-11-06T12:10:03.026Z,1014.6
2017-11-06T12:11:05.765Z,1014.6
2017-11-06T12:12:08.146Z,1014.6
2017-11-06T12:13:10.547Z,1014.6
2017-11-06T12:14:12.933Z,1014.6
2017-11-06T12:15:15.330Z,1014.6
2017-11-06T12:16:17.733Z,1014.6
2017-11-06T12:17:20.105Z,1014.6
2017-11-06T12:18:22.503Z,1014.6
2017-11-06T12:19:25.254Z,1014.6
2017-11-06T12:20:27.637Z,1014.6
2017-11-06T12:21:30.031Z,1014.7
2017-11-06T12:22:32.426Z,1014.6
2017-11-06T12:23:34.816Z,1014.6
2017-11-06T12:24:37.201Z,1014.7
2017-11-06T12:25:39.603Z,1014.6
2017-11-06T12:26:41.990Z,1014.7
2017-11-06T12:27:44.389Z,1014.7
2017-11-06T12:28:46.774Z,1014.7
2017-11-06T12:29:49.181Z,1014.7
2017-11-06T12:30:51.554Z,1014.7
2017-11-06T12:31:54.303Z,1014.7
2017-11-06T12:32:56.689Z,1014.7
2017-11-06T12:33:59.092Z,1014.7
2017-11-06T12:35:02.195Z,1014.7
2017-11-06T12:36:04.936Z,1014.7
2017-11-06T12:37:07.315Z,1014.7
2017-11-06T12:38:09.712Z,1014.7
2017-11-06T12:39:12.090Z,1014.7
2017-11-06T12:40:14.486Z,1014.7
2017-11-06T12:41:16.876Z,1014.8
2017-11-06T12:42:19.277Z,1014.7
2017-11-06T12:43:21.651Z,1014.8
2017-11-06T12:44:24.058Z,1014.8
2017-11-06T12:45:26.448Z,1014.8
2017-11-06T12:46:28.844Z,1014.8
2017-11-06T12:47:31.231Z,1014.8
2017-11-06T12:48:33.621Z,1014.8
2017-11-06T12:49:36.018Z,1014.8
2017-11-06T12:50:38.408Z,1014.8
2017-11-06T12:51:41.174Z,1014.8
2017-11-06T12:52:43.556Z,1014.8
2017-11-06T12:53:46.328Z,1014.8
2017-11-06T12:54:48.717Z,1014.8
2017-11-06T12:55:51.108Z,1014.8
2017-11-06T12:56:53.837Z,1014.8
2017-11-06T12:57:56.232Z,1014.8
2017-11-06T12:58:58.618Z,1014.8
2017-11-06T13:00:01.010Z,1014.8
2017-11-06T13:01:03.399Z,1014.8
2017-11-06T13:02:06.154Z,1014.8
2017-11-06T13:03:08.539Z,1014.8